Time;durP1;ratioP1;P1;durP2;ratioP2;P2;SDS_P1;SDS_P2;PMS_P1;PMS_P2;Temp;Humidity;BMP_temperature;BMP_pressure;BME280_temperature;BME280_humidity;BME280_pressure;Samples;Min_cycle;Max_cycle;Signal;HPM_P1;HPM_P2
2021/11/01 00:00:33;;;;;;;26.98;16.80;;;;;;;9.32;nan;100351.59;5044865;28;20029;-83
2021/11/01 00:02:58;;;;;;;26.98;18.35;;;;;;;9.28;nan;100345.16;5042837;28;20021;-81
2021/11/01 00:05:25;;;;;;;25.70;16.42;;;;;;;9.26;nan;100349.94;5032355;28;20013;-83
2021/11/01 00:07:51;;;;;;;32.30;17.80;;;;;;;9.29;nan;100343.28;5025826;28;20072;-83
2021/11/01 00:10:17;;;;;;;31.45;17.23;;;;;;;9.26;nan;100339.25;5048271;28;20029;-83
2021/11/01 00:12:44;;;;;;;29.88;17.15;;;;;;;9.28;nan;100336.31;5046447;28;20100;-82
2021/11/01 00:15:10;;;;;;;29.08;17.45;;;;;;;9.27;nan;100332.03;5050726;28;20016;-82
2021/11/01 00:17:37;;;;;;;26.75;15.95;;;;;;;9.30;nan;100329.66;5033449;28;20033;-83
2021/11/01 00:20:05;;;;;;;28.23;17.00;;;;;;;9.29;nan;100321.91;5025182;28;20049;-83
2021/11/01 00:22:31;;;;;;;33.95;17.67;;;;;;;9.26;nan;100307.16;5033456;28;20364;-83
2021/11/01 00:24:58;;;;;;;27.88;17.17;;;;;;;9.24;nan;100316.50;5031132;28;20029;-83
2021/11/01 00:27:23;;;;;;;24.25;15.48;;;;;;;9.28;nan;100306.91;5033483;28;20039;-83
2021/11/01 00:29:49;;;;;;;28.40;17.15;;;;;;;9.29;nan;100295.16;5031015;28;20116;-83
2021/11/01 00:32:15;;;;;;;29.60;16.90;;;;;;;9.31;nan;100293.84;5031530;28;20100;-83
2021/11/01 00:34:41;;;;;;;31.67;18.45;;;;;;;9.25;nan;100299.41;5033585;28;20029;-83
2021/11/01 00:37:07;;;;;;;30.90;18.10;;;;;;;9.27;nan;100290.06;5036499;28;20458;-83
2021/11/01 00:39:33;;;;;;;28.50;17.08;;;;;;;9.28;nan;100289.00;5027670;28;20488;-83
2021/11/01 00:41:58;;;;;;;29.90;17.75;;;;;;;9.26;nan;100276.97;5040940;28;20044;-83
2021/11/01 00:44:24;;;;;;;24.65;15.68;;;;;;;9.22;nan;100274.00;5052227;28;20506;-83
2021/11/01 00:46:50;;;;;;;28.33;17.08;;;;;;;9.24;nan;100269.19;5032784;28;20055;-83
2021/11/01 00:49:16;;;;;;;28.65;16.85;;;;;;;9.22;nan;100267.84;5049159;28;20029;-83
2021/11/01 00:51:43;;;;;;;33.28;17.95;;;;;;;9.23;nan;100253.41;5033230;28;20567;-82
2021/11/01 00:54:09;;;;;;;26.33;16.10;;;;;;;9.17;nan;100259.78;5030708;28;20025;-83
2021/11/01 00:56:36;;;;;;;25.60;15.85;;;;;;;9.13;nan;100254.09;5026787;28;20637;-83
2021/11/01 00:59:03;;;;;;;31.50;17.73;;;;;;;9.11;nan;100256.22;5034447;28;20029;-83
2021/11/01 01:01:32;;;;;;;29.10;17.55;;;;;;;9.15;nan;100262.66;5028098;28;20039;-83
2021/11/01 01:03:57;;;;;;;30.75;17.08;;;;;;;9.15;nan;100262.66;5035751;28;20637;-83
2021/11/01 01:06:23;;;;;;;27.73;17.20;;;;;;;9.08;nan;100260.19;5038973;28;20045;-83
2021/11/01 01:08:48;;;;;;;28.05;17.38;;;;;;;9.06;nan;100253.50;5031098;28;20040;-83
2021/11/01 01:11:14;;;;;;;26.77;15.90;;;;;;;9.01;nan;100253.44;5032160;28;20120;-83
2021/11/01 01:13:41;;;;;;;29.35;17.08;;;;;;;8.98;nan;100245.94;5026602;28;20086;-83
2021/11/01 01:18:39;;;;;;;34.40;16.42;;;;;;;8.95;nan;100244.53;5049946;28;20039;-83
2021/11/01 01:24:00;;;;;;;29.80;16.30;;;;;;;8.89;nan;100231.38;5006664;28;20033;-83
2021/11/01 01:26:25;;;;;;;29.20;18.40;;;;;;;8.92;nan;100231.69;5014315;28;20035;-82
2021/11/01 01:28:52;;;;;;;29.13;16.33;;;;;;;8.87;nan;100239.63;5014917;28;20033;-83
2021/11/01 01:31:18;;;;;;;27.08;16.48;;;;;;;8.86;nan;100231.88;5032639;28;20029;-82
2021/11/01 01:33:43;;;;;;;27.42;16.60;;;;;;;8.84;nan;100231.31;5024386;28;20029;-83
2021/11/01 01:36:09;;;;;;;28.88;17.38;;;;;;;8.79;nan;100230.19;5013643;28;20025;-82
2021/11/01 01:38:35;;;;;;;27.55;16.40;;;;;;;8.80;nan;100228.34;5028731;28;20049;-83
2021/11/01 01:41:16;;;;;;;26.77;17.08;;;;;;;8.71;nan;100225.28;5013025;28;20097;-82
2021/11/01 01:43:52;;;;;;;29.55;16.80;;;;;;;8.71;nan;100229.81;5030241;28;20080;-83
2021/11/01 01:46:19;;;;;;;30.92;17.85;;;;;;;8.71;nan;100222.63;5018223;28;20050;-82
2021/11/01 01:48:45;;;;;;;24.92;15.98;;;;;;;8.69;nan;100221.25;5030407;28;20025;-83
2021/11/01 01:51:10;;;;;;;29.08;17.80;;;;;;;8.67;nan;100224.16;5027416;28;20396;-83
2021/11/01 01:53:37;;;;;;;28.00;17.17;;;;;;;8.61;nan;100221.66;5005324;28;20098;-82
2021/11/01 01:56:04;;;;;;;29.52;16.90;;;;;;;8.64;nan;100214.00;5026541;28;20029;-82
2021/11/01 01:58:34;;;;;;;31.02;17.55;;;;;;;8.63;nan;100207.03;5017183;28;20021;-83
2021/11/01 02:01:09;;;;;;;30.80;17.20;;;;;;;8.55;nan;100210.13;5017871;28;20064;-83
2021/11/01 02:03:39;;;;;;;31.88;17.30;;;;;;;8.52;nan;100207.94;5015058;28;20040;-83
2021/11/01 02:06:12;;;;;;;31.77;17.75;;;;;;;8.53;nan;100201.56;5034539;28;20033;-82
2021/11/01 02:08:44;;;;;;;36.42;17.48;;;;;;;8.53;nan;100196.22;5013286;28;20098;-83
2021/11/01 02:11:15;;;;;;;33.50;18.27;;;;;;;8.51;nan;100195.66;5027235;28;20448;-83
2021/11/01 02:13:45;;;;;;;31.08;16.58;;;;;;;8.50;nan;100185.22;5005059;28;20029;-82
2021/11/01 02:16:13;;;;;;;31.13;17.95;;;;;;;8.48;nan;100188.16;5029620;28;20026;-82
2021/11/01 02:18:41;;;;;;;27.80;17.80;;;;;;;8.39;nan;100178.94;5011825;28;20087;-83
2021/11/01 02:21:23;;;;;;;33.08;18.45;;;;;;;8.39;nan;100173.59;5023196;28;20031;-83
2021/11/01 02:24:02;;;;;;;30.30;17.83;;;;;;;8.47;nan;100168.66;5016655;28;20017;-83
2021/11/01 02:26:27;;;;;;;31.80;17.17;;;;;;;8.51;nan;100168.16;5015457;28;20087;-82
2021/11/01 02:28:54;;;;;;;30.15;17.30;;;;;;;8.53;nan;100166.03;5013756;28;20033;-83
2021/11/01 02:31:20;;;;;;;27.55;16.90;;;;;;;8.54;nan;100154.31;5013836;28;20026;-83
2021/11/01 02:33:50;;;;;;;31.05;19.02;;;;;;;8.55;nan;100146.03;5027908;28;20034;-83
2021/11/01 02:36:17;;;;;;;28.67;17.30;;;;;;;8.56;nan;100152.19;5016500;28;20506;-83
2021/11/01 02:38:48;;;;;;;28.55;17.08;;;;;;;8.58;nan;100150.88;5012907;28;20025;-83
2021/11/01 02:41:24;;;;;;;31.23;17.90;;;;;;;8.52;nan;100151.88;5017657;28;20021;-83
2021/11/01 02:44:02;;;;;;;32.13;16.77;;;;;;;8.51;nan;100147.59;5013803;28;20475;-83
2021/11/01 02:46:28;;;;;;;26.40;16.13;;;;;;;8.57;nan;100140.44;5016703;28;20037;-83
2021/11/01 02:48:55;;;;;;;29.40;18.58;;;;;;;8.57;nan;100141.25;5011805;28;20034;-83
2021/11/01 02:51:23;;;;;;;26.38;16.45;;;;;;;8.54;nan;100144.44;5014504;28;20025;-83
2021/11/01 02:53:50;;;;;;;27.63;17.45;;;;;;;8.52;nan;100146.53;5014022;28;20059;-83
2021/11/01 02:56:16;;;;;;;28.30;16.85;;;;;;;8.54;nan;100147.09;5014290;28;20025;-83
2021/11/01 02:58:44;;;;;;;27.63;16.88;;;;;;;8.56;nan;100136.97;5013794;28;20064;-83
2021/11/01 03:01:13;;;;;;;30.65;17.23;;;;;;;8.50;nan;100140.66;5009692;28;20499;-83
2021/11/01 03:03:39;;;;;;;30.35;17.27;;;;;;;8.44;nan;100131.78;5012551;28;20061;-83
2021/11/01 03:06:06;;;;;;;30.23;17.55;;;;;;;8.43;nan;100132.00;5013925;28;20590;-83
2021/11/01 03:08:33;;;;;;;30.15;17.95;;;;;;;8.40;nan;100127.16;5009165;28;20126;-83
2021/11/01 03:11:00;;;;;;;33.55;18.27;;;;;;;8.35;nan;100127.91;5012973;28;21339;-83
2021/11/01 03:13:28;;;;;;;28.90;17.77;;;;;;;8.34;nan;100120.16;5012466;28;20403;-82
2021/11/01 03:15:59;;;;;;;27.83;18.15;;;;;;;8.34;nan;100122.81;5013357;28;20026;-83
2021/11/01 03:18:31;;;;;;;29.50;17.90;;;;;;;8.28;nan;100121.13;5015599;28;20099;-82
2021/11/01 03:20:58;;;;;;;28.95;17.38;;;;;;;8.32;nan;100107.03;5011994;28;20155;-83
2021/11/01 03:23:33;;;;;;;27.35;16.67;;;;;;;8.30;nan;100111.00;5009788;28;20187;-83
2021/11/01 03:26:01;;;;;;;32.15;17.38;;;;;;;8.29;nan;100106.72;5007793;28;20044;-84
2021/11/01 03:28:29;;;;;;;28.33;17.13;;;;;;;8.21;nan;100099.94;5035201;28;20034;-84
2021/11/01 03:30:57;;;;;;;30.92;17.85;;;;;;;8.17;nan;100099.63;5013536;28;20380;-85
2021/11/01 03:33:25;;;;;;;28.10;16.90;;;;;;;8.13;nan;100095.84;5013735;28;20557;-84
2021/11/01 03:35:53;;;;;;;31.17;16.73;;;;;;;7.95;nan;100093.47;5013431;28;20120;-84
2021/11/01 03:38:20;;;;;;;32.03;18.30;;;;;;;7.79;nan;100095.13;5011887;28;20487;-83
2021/11/01 03:40:47;;;;;;;28.38;18.08;;;;;;;7.81;nan;100092.22;5015073;28;20033;-83
2021/11/01 03:43:23;;;;;;;33.83;18.20;;;;;;;7.77;nan;100085.75;5011939;28;20025;-84
2021/11/01 03:45:49;;;;;;;29.27;18.35;;;;;;;7.66;nan;100084.00;5014614;28;20109;-84
2021/11/01 03:48:17;;;;;;;30.63;17.10;;;;;;;7.61;nan;100082.06;5009558;28;20049;-84
2021/11/01 03:50:46;;;;;;;32.35;17.20;;;;;;;7.57;nan;100081.75;5000956;28;20036;-85
2021/11/01 03:53:11;;;;;;;32.17;18.27;;;;;;;7.51;nan;100079.25;5013616;28;20475;-84
2021/11/01 03:55:38;;;;;;;27.48;17.15;;;;;;;7.55;nan;100088.38;5012962;28;20036;-85
2021/11/01 03:58:05;;;;;;;29.92;17.88;;;;;;;7.48;nan;100093.88;5015823;28;20475;-83
2021/11/01 04:00:36;;;;;;;31.85;18.02;;;;;;;7.48;nan;100093.88;5031636;28;20087;-84
2021/11/01 04:03:03;;;;;;;33.95;17.58;;;;;;;7.54;nan;100095.56;5012660;28;20409;-83
2021/11/01 04:05:30;;;;;;;32.55;18.35;;;;;;;7.54;nan;100102.75;5014573;28;20035;-84
2021/11/01 04:07:56;;;;;;;33.25;18.67;;;;;;;7.53;nan;100096.59;5028748;28;20029;-83
2021/11/01 04:10:21;;;;;;;32.13;19.42;;;;;;;7.67;nan;100085.59;4995958;28;20030;-85
2021/11/01 04:12:47;;;;;;;30.05;17.88;;;;;;;7.67;nan;100080.28;5027450;28;20089;-86
2021/11/01 04:15:22;;;;;;;30.30;18.75;;;;;;;7.70;nan;100075.25;5033705;28;20030;-85
2021/11/01 04:17:57;;;;;;;34.63;19.83;;;;;;;7.65;nan;100080.53;5039040;28;20085;-84
2021/11/01 04:20:29;;;;;;;35.38;18.65;;;;;;;7.58;nan;100087.91;5017041;28;20637;-77
2021/11/01 04:23:04;;;;;;;30.40;17.35;;;;;;;7.55;nan;100081.19;5023473;28;20048;-77
2021/11/01 04:25:32;;;;;;;33.15;17.27;;;;;;;7.54;nan;100090.25;5032503;28;20033;-84
2021/11/01 04:28:00;;;;;;;33.38;18.58;;;;;;;7.57;nan;100081.75;5037130;28;20064;-83
2021/11/01 04:30:29;;;;;;;29.90;17.88;;;;;;;7.60;nan;100084.97;5051183;28;20078;-84
2021/11/01 04:32:59;;;;;;;29.73;18.02;;;;;;;7.60;nan;100084.97;5042873;28;20509;-84
2021/11/01 04:35:33;;;;;;;29.58;18.33;;;;;;;7.60;nan;100085.78;5049240;28;20038;-84
2021/11/01 04:38:59;;;;;;;29.00;17.50;;;;;;;7.63;nan;100087.16;5030156;28;20052;-84
2021/11/01 04:54:06;;;;;;;33.65;18.42;;;;;;;7.55;nan;100094.53;5048931;28;20386;-84
2021/11/01 04:56:32;;;;;;;33.17;18.08;;;;;;;7.54;nan;100084.91;5032129;28;20447;-84
2021/11/01 04:58:58;;;;;;;32.65;18.10;;;;;;;7.54;nan;100087.59;5031780;28;20082;-83
2021/11/01 05:04:23;;;;;;;32.05;18.30;;;;;;;7.52;nan;100084.31;5026301;28;20103;-84
2021/11/01 05:06:52;;;;;;;27.75;17.77;;;;;;;7.50;nan;100094.44;5034370;28;20036;-83
2021/11/01 05:09:22;;;;;;;28.98;18.02;;;;;;;7.50;nan;100093.63;5045540;28;20467;-84
2021/11/01 05:11:58;;;;;;;30.77;18.05;;;;;;;7.48;nan;100093.06;5043420;28;20507;-84
2021/11/01 05:17:18;;;;;;;33.97;18.67;;;;;;;7.47;nan;100091.44;5045770;28;20067;-84
2021/11/01 05:22:37;;;;;;;31.83;19.73;;;;;;;7.48;nan;100080.53;5054223;28;20039;-83
2021/11/01 05:25:40;;;;;;;32.83;18.48;;;;;;;7.45;nan;100081.03;5028253;28;20033;-84
2021/11/01 05:30:37;;;;;;;28.52;17.00;;;;;;;7.38;nan;100083.06;5049862;28;20395;-84
2021/11/01 05:35:39;;;;;;;34.20;18.65;;;;;;;7.34;nan;100086.44;5047518;28;20021;-83
2021/11/01 05:38:05;;;;;;;30.92;18.73;;;;;;;7.33;nan;100082.97;5025915;28;20036;-84
2021/11/01 05:40:31;;;;;;;33.55;18.45;;;;;;;7.36;nan;100085.16;5032829;28;20017;-84
2021/11/01 05:42:57;;;;;;;36.70;19.02;;;;;;;7.36;nan;100079.84;5046267;28;20037;-84
2021/11/01 05:45:23;;;;;;;32.55;19.10;;;;;;;7.41;nan;100082.56;5022021;28;20036;-85
2021/11/01 05:47:57;;;;;;;27.65;17.02;;;;;;;7.40;nan;100086.28;5033637;28;20032;-84
2021/11/01 05:50:25;;;;;;;31.07;18.63;;;;;;;7.39;nan;100089.22;5036884;28;20037;-83
2021/11/01 05:52:51;;;;;;;30.63;18.33;;;;;;;7.40;nan;100088.97;5032313;28;20777;-84
2021/11/01 06:10:51;;;;;;;33.00;19.27;;;;;;;7.42;nan;100102.03;5048304;28;20044;-83
2021/11/01 06:13:29;;;;;;;31.90;18.33;;;;;;;7.42;nan;100094.03;5021725;28;20063;-82
2021/11/01 06:15:57;;;;;;;33.45;19.30;;;;;;;7.46;nan;100101.31;5021486;28;20030;-83
2021/11/01 06:18:33;;;;;;;35.50;20.10;;;;;;;7.43;nan;100093.78;5047875;28;20050;-82
2021/11/01 06:20:58;;;;;;;34.05;19.13;;;;;;;7.48;nan;100104.53;5047555;28;20440;-82
2021/11/01 06:23:24;;;;;;;33.58;18.83;;;;;;;7.51;nan;100114.69;5029401;28;20024;-82
2021/11/01 06:25:51;;;;;;;30.63;19.08;;;;;;;7.51;nan;100116.56;5027973;28;20404;-82
2021/11/01 06:28:20;;;;;;;37.50;20.23;;;;;;;7.55;nan;100109.72;5024951;28;20028;-82
2021/11/01 06:30:52;;;;;;;34.28;19.95;;;;;;;7.61;nan;100118.59;5029508;28;20033;-81
2021/11/01 07:16:50;;;;;;;34.40;19.63;;;;;;;9.11;nan;100184.06;5069713;28;20055;-83
2021/11/01 09:19:59;;;;;;;27.48;17.30;;;;;;;12.49;nan;100282.53;5047590;28;20033;-82
2021/11/01 09:25:48;;;;;;;29.17;17.67;;;;;;;12.43;nan;100280.94;5042963;28;20479;-82
2021/11/01 09:27:57;;;;;;;25.50;17.48;;;;;;;12.40;nan;100285.78;5044345;28;20044;-82
2021/11/01 09:35:41;;;;;;;28.38;17.10;;;;;;;12.25;nan;100272.38;5029224;28;20032;-82
2021/11/01 09:36:04;;;;;;;30.58;17.88;;;;;;;12.35;nan;100287.66;5047897;28;20542;-82
2021/11/01 09:41:13;;;;;;;28.40;17.42;;;;;;;12.36;nan;100300.81;5053564;28;20086;-83
2021/11/01 09:43:45;;;;;;;27.52;17.73;;;;;;;12.43;nan;100310.50;5030623;28;20032;-83
2021/11/01 09:46:11;;;;;;;29.25;18.38;;;;;;;12.50;nan;100303.75;5044169;28;20064;-82
2021/11/01 09:48:40;;;;;;;29.55;17.52;;;;;;;12.45;nan;100305.66;5028122;28;20502;-82
2021/11/01 09:51:07;;;;;;;25.83;17.38;;;;;;;12.55;nan;100305.63;5022629;28;20328;-82
2021/11/01 09:53:39;;;;;;;32.17;17.52;;;;;;;12.64;nan;100312.88;5027433;28;20032;-82
2021/11/01 09:56:17;;;;;;;26.25;18.58;;;;;;;12.62;nan;100308.84;5049048;28;20540;-83
2021/11/01 10:01:27;;;;;;;35.03;17.77;;;;;;;12.51;nan;100326.88;5065296;22;20079;-54
2021/11/01 10:03:52;;;;;;;31.40;17.98;;;;;;;12.52;nan;100325.78;5033224;28;20482;-54
2021/11/01 10:06:22;;;;;;;29.83;16.67;;;;;;;12.53;nan;100337.34;5030828;28;20033;-51
2021/11/01 10:08:51;;;;;;;30.95;17.75;;;;;;;12.49;nan;100323.66;5033619;28;20030;-53
2021/11/01 10:11:25;;;;;;;33.42;17.90;;;;;;;12.37;nan;100345.41;5031985;28;20032;-51
2021/11/01 10:14:01;;;;;;;29.73;18.27;;;;;;;12.38;nan;100349.69;5031541;28;20083;-53
2021/11/01 10:19:42;;;;;;;31.17;16.65;;;;;;;12.41;nan;100351.06;5035690;28;20032;-54
2021/11/01 10:22:24;;;;;;;25.00;16.98;;;;;;;12.50;nan;100354.00;5035842;28;20418;-53
2021/11/01 10:24:52;;;;;;;29.80;16.90;;;;;;;12.50;nan;100359.38;5040340;28;20460;-53
2021/11/01 10:27:29;;;;;;;26.27;16.65;;;;;;;12.43;nan;100359.66;5035949;28;20189;-54
2021/11/01 10:29:58;;;;;;;38.10;18.45;;;;;;;12.55;nan;100365.56;5035046;28;20184;-51
2021/11/01 10:32:32;;;;;;;35.47;17.00;;;;;;;12.68;nan;100366.88;5035637;28;20487;-51
2021/11/01 10:35:19;;;;;;;34.25;15.75;;;;;;;12.68;nan;100351.56;5034729;28;20091;-51
2021/11/01 10:57:01;;;;;;;30.80;15.48;;;;;;;12.85;nan;100351.28;5039157;28;20249;-51
2021/11/01 11:10:52;;;;;;;26.02;14.38;;;;;;;12.72;nan;100362.56;5033464;28;20450;-54
2021/11/01 11:13:18;;;;;;;24.50;16.63;;;;;;;13.15;nan;100311.91;5032420;28;20060;-51
2021/11/01 11:15:47;;;;;;;25.00;16.88;;;;;;;13.29;nan;100297.63;5034460;28;20141;-53
2021/11/01 11:26:37;;;;;;;26.75;16.60;;;;;;;13.34;nan;100298.69;5034070;28;20079;-53
2021/11/01 11:43:36;;;;;;;29.45;17.00;;;;;;;12.81;nan;100334.06;5022595;28;20036;-51
2021/11/01 11:48:48;;;;;;;25.17;16.23;;;;;;;12.88;nan;100337.28;5033590;28;20797;-52
2021/11/01 11:51:13;;;;;;;24.83;15.70;;;;;;;12.90;nan;100348.56;5032159;28;20044;-52
2021/11/01 11:54:08;;;;;;;24.63;15.10;;;;;;;12.78;nan;100345.38;5032290;28;20079;-52
2021/11/01 11:56:37;;;;;;;26.70;15.52;;;;;;;12.74;nan;100351.56;5020887;28;20972;-51
2021/11/01 11:59:06;;;;;;;24.73;15.43;;;;;;;12.81;nan;100347.53;5032745;28;20142;-54
2021/11/01 12:01:37;;;;;;;27.65;18.25;;;;;;;12.88;nan;100350.72;5033612;28;20025;-51
2021/11/01 12:04:19;;;;;;;24.77;15.98;;;;;;;12.81;nan;100349.41;5031447;28;20407;-53
2021/11/01 12:07:07;;;;;;;27.60;16.45;;;;;;;12.90;nan;100348.56;5033222;28;20029;-52
2021/11/01 12:09:45;;;;;;;25.88;16.60;;;;;;;13.00;nan;100340.47;5031870;28;20493;-50
2021/11/01 12:17:28;;;;;;;23.83;15.65;;;;;;;13.03;nan;100333.75;5031576;28;20510;-50
2021/11/01 12:19:57;;;;;;;25.70;16.30;;;;;;;13.07;nan;100336.69;5030384;28;20293;-54
2021/11/01 12:22:35;;;;;;;23.08;15.05;;;;;;;13.19;nan;100332.63;5031654;28;20114;-53
2021/11/01 12:25:05;;;;;;;26.08;16.25;;;;;;;13.14;nan;100338.00;5031243;28;20021;-54
2021/11/01 12:27:34;;;;;;;23.30;14.63;;;;;;;13.20;nan;100342.31;5037574;28;20085;-51
2021/11/01 12:30:05;;;;;;;25.27;14.30;;;;;;;13.24;nan;100343.38;5010507;28;20040;-54
2021/11/01 12:32:31;;;;;;;23.80;14.23;;;;;;;13.19;nan;100345.28;5031555;28;20037;-51
2021/11/01 12:38:01;;;;;;;21.07;14.33;;;;;;;12.96;nan;100344.78;5031863;28;20119;-52
2021/11/01 12:41:16;;;;;;;26.35;15.10;;;;;;;13.08;nan;100347.16;5032074;28;20050;-54
2021/11/01 12:57:01;;;;;;;24.27;13.25;;;;;;;13.02;nan;100346.38;5027538;28;20068;-53
2021/11/01 12:59:35;;;;;;;23.92;13.93;;;;;;;12.99;nan;100352.31;5038358;28;20020;-51
2021/11/01 13:02:01;;;;;;;21.05;13.18;;;;;;;13.05;nan;100352.28;5011708;28;20048;-55
2021/11/01 13:04:38;;;;;;;28.88;15.00;;;;;;;12.98;nan;100353.41;5010056;28;20211;-54
2021/11/01 13:09:44;;;;;;;21.95;13.00;;;;;;;12.95;nan;100364.69;5009589;28;20484;-53
2021/11/01 13:20:06;;;;;;;24.58;14.05;;;;;;;12.73;nan;100358.81;5008936;28;20076;-52
2021/11/01 13:22:46;;;;;;;23.00;13.63;;;;;;;12.87;nan;100359.88;5014141;28;20468;-54
2021/11/01 13:25:36;;;;;;;25.10;14.13;;;;;;;12.96;nan;100365.50;5018892;28;20411;-54
2021/11/01 13:36:49;;;;;;;29.45;13.82;;;;;;;12.71;nan;100367.16;5020647;28;20040;-55
2021/11/01 13:39:29;;;;;;;23.20;13.55;;;;;;;12.54;nan;100372.00;5021359;28;20028;-55
2021/11/01 13:41:55;;;;;;;19.80;12.70;;;;;;;12.58;nan;100372.28;5009556;28;20299;-54
2021/11/01 13:44:23;;;;;;;24.25;14.20;;;;;;;12.65;nan;100368.25;5010245;28;20029;-52
2021/11/01 13:46:51;;;;;;;28.88;13.05;;;;;;;12.67;nan;100360.72;5009297;28;20088;-54
2021/11/01 13:49:19;;;;;;;23.30;13.05;;;;;;;12.69;nan;100373.88;5009960;28;20025;-54
2021/11/01 13:51:48;;;;;;;22.25;12.90;;;;;;;12.76;nan;100362.88;5018406;28;20037;-55
2021/11/01 13:56:43;;;;;;;26.67;13.73;;;;;;;12.75;nan;100370.13;5018885;28;20026;-53
2021/11/01 14:12:52;;;;;;;23.60;14.50;;;;;;;12.62;nan;100371.47;5036926;28;20076;-54
2021/11/01 14:29:11;;;;;;;27.92;14.77;;;;;;;12.54;nan;100352.38;5034906;28;19971;-51
2021/11/01 15:09:45;;;;;;;27.63;14.17;;;;;;;12.14;nan;100350.53;5036632;28;20090;-53
2021/11/01 16:18:51;;;;;;;28.70;16.58;;;;;;;11.43;nan;100429.75;5039140;28;20025;-54
2021/11/01 16:21:18;;;;;;;32.22;17.35;;;;;;;11.43;nan;100431.63;5035700;28;20249;-54
2021/11/01 16:23:44;;;;;;;32.90;18.30;;;;;;;11.42;nan;100425.44;5031649;28;20040;-54
2021/11/01 16:28:51;;;;;;;31.25;18.13;;;;;;;11.38;nan;100428.91;5033387;28;20032;-52
2021/11/01 16:33:58;;;;;;;36.92;19.42;;;;;;;11.30;nan;100421.34;5035976;28;20298;-52
2021/11/01 16:39:14;;;;;;;35.45;20.20;;;;;;;11.23;nan;100421.59;5041901;28;20040;-53
2021/11/01 16:41:46;;;;;;;34.00;18.95;;;;;;;11.20;nan;100422.94;5044456;28;20029;-54
2021/11/01 16:46:42;;;;;;;40.70;20.88;;;;;;;11.25;nan;100413.28;5034654;28;20245;-53
2021/11/01 16:49:09;;;;;;;34.80;19.48;;;;;;;11.19;nan;100418.63;5048205;28;20028;-53
2021/11/01 16:51:35;;;;;;;36.60;20.38;;;;;;;11.13;nan;100422.38;5044689;28;20031;-53
2021/11/01 16:54:00;;;;;;;35.40;19.15;;;;;;;11.14;nan;100423.19;5039456;28;20414;-52
2021/11/01 16:56:47;;;;;;;38.13;20.80;;;;;;;11.14;nan;100412.44;5037259;28;20021;-53
2021/11/01 16:59:40;;;;;;;33.60;18.95;;;;;;;11.14;nan;100413.25;5031671;28;20181;-53
2021/11/01 17:04:45;;;;;;;32.45;20.38;;;;;;;11.16;nan;100424.53;5034597;28;20435;-53
2021/11/01 18:36:21;;;;;;;46.35;23.27;;;;;;;10.77;nan;100440.09;5036146;28;20036;-54
2021/11/01 18:38:31;;;;;;;41.67;22.30;;;;;;;10.72;nan;100436.53;5041710;28;20047;-53
2021/11/01 18:41:10;;;;;;;;;;;;;;;10.59;nan;100435.09;5039461;28;20488;-54
2021/11/01 18:51:49;;;;;;;41.90;24.15;;;;;;;10.68;nan;100430.09;5042294;28;20595;-53
2021/11/01 18:54:19;;;;;;;44.35;23.33;;;;;;;10.68;nan;100432.75;5042055;28;20035;-55
2021/11/01 18:56:47;;;;;;;39.97;21.55;;;;;;;10.71;nan;100434.91;5042598;28;20067;-52
2021/11/01 18:59:14;;;;;;;39.33;21.17;;;;;;;10.65;nan;100431.41;5044597;28;20066;-53
2021/11/01 19:01:43;;;;;;;45.78;22.80;;;;;;;10.67;nan;100425.78;5020812;28;20395;-54
2021/11/01 19:04:34;;;;;;;42.70;23.45;;;;;;;10.63;nan;100425.50;5045002;28;20060;-53
2021/11/01 19:07:11;;;;;;;42.15;21.98;;;;;;;10.64;nan;100434.34;5041858;28;20036;-52
2021/11/01 19:13:26;;;;;;;45.60;23.17;;;;;;;10.55;nan;100434.00;5044337;28;20509;-54
2021/11/01 21:25:20;;;;;;;18.02;8.55;;;;;;;10.04;nan;100392.50;5039337;28;20093;-54
2021/11/01 21:27:46;;;;;;;15.93;8.35;;;;;;;10.06;nan;100391.22;5025239;28;20028;-54
2021/11/01 21:30:12;;;;;;;20.10;9.50;;;;;;;10.06;nan;100385.06;5035579;28;20036;-53
2021/11/01 21:32:40;;;;;;;16.65;9.45;;;;;;;10.04;nan;100387.97;5034977;28;20039;-53
2021/11/01 21:35:11;;;;;;;17.25;8.73;;;;;;;10.05;nan;100386.91;5034882;28;20048;-55
2021/11/01 21:37:36;;;;;;;19.92;9.13;;;;;;;10.07;nan;100384.81;5039206;28;20021;-53
2021/11/01 21:40:04;;;;;;;19.88;8.85;;;;;;;10.10;nan;100386.16;5036160;28;20623;-54
2021/11/01 21:42:30;;;;;;;16.13;9.32;;;;;;;10.13;nan;100374.94;5037219;28;20407;-55
2021/11/01 21:44:56;;;;;;;20.27;10.23;;;;;;;10.13;nan;100373.09;5014846;28;20032;-51
2021/11/01 21:47:21;;;;;;;17.52;9.32;;;;;;;10.14;nan;100377.38;5034327;28;20084;-55
2021/11/01 21:49:48;;;;;;;17.42;9.02;;;;;;;10.12;nan;100376.81;5033431;28;20051;-55
2021/11/01 21:52:15;;;;;;;18.80;9.35;;;;;;;10.14;nan;100368.53;5021056;28;20037;-53
2021/11/01 21:54:52;;;;;;;20.10;9.90;;;;;;;10.13;nan;100366.91;5044423;28;20036;-53
2021/11/01 21:57:26;;;;;;;17.88;9.55;;;;;;;10.12;nan;100370.66;5035907;28;20817;-53
2021/11/01 22:24:20;;;;;;;15.88;9.50;;;;;;;10.12;nan;100368.78;5040430;28;20390;-52
2021/11/01 22:34:48;;;;;;;19.95;9.65;;;;;;;9.99;nan;100363.84;5046937;28;20024;-51
2021/11/01 22:40:12;;;;;;;16.80;9.20;;;;;;;9.90;nan;100368.84;5042871;28;20087;-53
2021/11/01 22:42:49;;;;;;;18.95;9.38;;;;;;;9.92;nan;100361.38;5039871;28;20548;-52
2021/11/01 22:48:30;;;;;;;16.40;8.70;;;;;;;9.81;nan;100359.66;4944898;29;20031;-53
2021/11/01 22:56:33;;;;;;;16.48;7.75;;;;;;;9.38;nan;100347.16;5043492;28;20450;-53
2021/11/01 22:59:00;;;;;;;14.95;7.97;;;;;;;9.25;nan;100356.34;5024304;28;20090;-52
2021/11/01 23:01:27;;;;;;;18.63;8.48;;;;;;;9.29;nan;100353.97;5043811;28;20707;-50
2021/11/01 23:33:49;;;;;;;11.10;6.70;;;;;;;9.54;nan;100356.16;5038658;28;20046;-53
2021/11/01 23:36:15;;;;;;;13.95;7.10;;;;;;;9.55;nan;100357.78;5038704;28;20244;-51
2021/11/01 23:38:40;;;;;;;11.98;6.57;;;;;;;9.50;nan;100350.47;5037962;28;20520;-51
2021/11/01 23:41:06;;;;;;;15.68;7.40;;;;;;;9.37;nan;100354.38;5037787;28;20040;-51
2021/11/01 23:43:32;;;;;;;12.15;6.93;;;;;;;9.41;nan;100351.19;5039521;28;20029;-54
2021/11/01 23:45:58;;;;;;;11.85;6.43;;;;;;;9.50;nan;100349.69;5027765;28;20024;-53
2021/11/01 23:48:24;;;;;;;9.98;6.20;;;;;;;9.47;nan;100347.50;5043947;28;20036;-51
2021/11/01 23:50:50;;;;;;;9.77;6.18;;;;;;;9.48;nan;100347.25;5040756;28;20272;-53
2021/11/01 23:53:32;;;;;;;17.92;6.93;;;;;;;9.49;nan;100348.88;5039676;28;20024;-50
2021/11/01 23:55:58;;;;;;;13.13;5.90;;;;;;;9.46;nan;100345.91;5038920;28;20017;-52
2021/11/01 23:58:23;;;;;;;10.02;5.68;;;;;;;9.45;nan;100341.59;5038058;28;20086;-53
